createdAt,value
2022-11-24T00:01:11.749Z,98958.19
2022-11-24T00:03:39.929Z,98963.75
2022-11-24T00:06:09.108Z,98959.47
2022-11-24T00:08:37.467Z,98956.34
2022-11-24T00:11:07.176Z,98960.47
2022-11-24T00:13:35.795Z,98958.97
2022-11-24T00:16:14.446Z,98966.00
2022-11-24T00:18:44.053Z,98964.72
2022-11-24T00:21:12.482Z,98968.56
2022-11-24T00:23:40.464Z,98970.00
2022-11-24T00:26:10.232Z,98983.75
2022-11-24T00:28:39.301Z,98973.81
2022-11-24T00:31:17.923Z,98979.28
2022-11-24T00:33:46.326Z,98987.19
2022-11-24T00:36:14.704Z,98990.00
2022-11-24T00:38:42.786Z,98985.56
2022-11-24T00:41:10.810Z,98995.66
2022-11-24T00:43:38.538Z,98995.28
2022-11-24T00:46:07.067Z,98998.09
2022-11-24T00:48:36.512Z,99000.56
2022-11-24T00:51:06.691Z,99007.03
2022-11-24T00:53:35.013Z,99011.78
2022-11-24T00:56:03.868Z,99006.13
2022-11-24T00:58:32.607Z,99007.94
2022-11-24T01:01:03.915Z,99010.25
2022-11-24T01:03:31.797Z,99010.50
2022-11-24T01:06:05.641Z,99016.19
2022-11-24T01:08:33.568Z,99020.91
2022-11-24T01:11:09.447Z,99017.44
2022-11-24T01:13:37.707Z,99024.38
2022-11-24T01:16:05.916Z,99029.50
2022-11-24T01:18:34.106Z,99036.22
2022-11-24T01:21:10.125Z,99036.97
2022-11-24T01:23:38.756Z,99038.97
2022-11-24T01:26:07.163Z,99037.81
2022-11-24T01:28:35.066Z,99033.63
2022-11-24T01:31:04.859Z,99032.25
2022-11-24T01:33:34.181Z,99034.66
2022-11-24T01:36:02.697Z,99041.91
2022-11-24T01:38:31.906Z,99043.84
2022-11-24T01:41:04.205Z,99054.41
2022-11-24T01:43:32.289Z,99057.50
2022-11-24T01:46:05.013Z,99060.78
2022-11-24T01:48:39.434Z,99063.00
2022-11-24T01:51:12.883Z,99060.53
2022-11-24T01:53:44.799Z,99064.44
2022-11-24T01:56:14.120Z,99057.97
2022-11-24T01:58:44.452Z,99065.81
2022-11-24T02:01:12.699Z,99055.56
2022-11-24T02:03:44.674Z,99059.22
2022-11-24T02:06:14.528Z,99050.09
2022-11-24T02:08:48.075Z,99054.66
2022-11-24T02:11:16.164Z,99054.19
2022-11-24T02:13:45.173Z,99053.03
2022-11-24T02:16:13.869Z,99062.22
2022-11-24T02:18:43.137Z,99063.41
2022-11-24T02:21:12.152Z,99059.31
2022-11-24T02:23:49.733Z,99061.59
2022-11-24T02:26:29.105Z,99067.25
2022-11-24T02:28:57.524Z,99062.31
2022-11-24T02:31:25.336Z,99060.31
2022-11-24T02:33:53.457Z,99050.75
2022-11-24T02:36:21.210Z,99061.31
2022-11-24T02:38:49.140Z,99073.44
2022-11-24T02:41:20.642Z,99055.56
2022-11-24T02:43:56.225Z,99062.22
2022-11-24T02:46:24.099Z,99064.59
2022-11-24T02:48:52.091Z,99063.50
2022-11-24T02:51:20.391Z,99072.41
2022-11-24T02:53:48.360Z,99066.03
2022-11-24T02:56:16.102Z,99065.84
2022-11-24T02:58:43.826Z,99075.13
2022-11-24T03:01:13.193Z,99072.84
2022-11-24T03:03:41.314Z,99077.59
2022-11-24T03:06:09.461Z,99064.94
2022-11-24T03:08:37.266Z,99071.03
2022-11-24T03:11:05.229Z,99067.69
2022-11-24T03:13:32.996Z,99065.59
2022-11-24T03:16:01.361Z,99067.19
2022-11-24T03:18:30.589Z,99063.72
2022-11-24T03:21:00.628Z,99051.38
2022-11-24T03:23:28.416Z,99052.75
2022-11-24T03:25:56.171Z,99052.22
2022-11-24T03:28:24.192Z,99058.00
2022-11-24T03:30:52.081Z,99051.47
2022-11-24T03:33:20.030Z,99058.28
2022-11-24T03:35:49.313Z,99058.44
2022-11-24T03:38:17.081Z,99061.53
2022-11-24T03:40:44.812Z,99068.03
2022-11-24T03:43:12.553Z,99071.03
2022-11-24T03:45:47.548Z,99072.03
2022-11-24T03:48:15.779Z,99076.81
2022-11-24T03:50:43.558Z,99073.59
2022-11-24T03:53:12.689Z,99071.47
2022-11-24T03:55:40.720Z,99076.34
2022-11-24T03:58:08.438Z,99077.03
2022-11-24T04:00:36.377Z,99082.81
2022-11-24T04:03:04.467Z,99087.50
2022-11-24T04:05:33.113Z,99075.78
2022-11-24T04:08:03.104Z,99077.97
2022-11-24T04:10:33.016Z,99074.16
2022-11-24T04:12:59.774Z,99076.72
2022-11-24T04:15:27.434Z,99072.81
2022-11-24T04:17:56.490Z,99083.31
2022-11-24T04:20:24.635Z,99086.16
2022-11-24T04:22:52.495Z,99098.13
2022-11-24T04:25:20.491Z,99095.06
2022-11-24T04:27:52.845Z,99091.19
2022-11-24T04:30:21.227Z,99094.22
2022-11-24T04:32:49.793Z,99094.66
2022-11-24T04:35:17.880Z,99091.34
2022-11-24T04:37:45.543Z,99092.13
2022-11-24T04:40:14.027Z,99105.38
2022-11-24T04:42:41.730Z,99103.34
2022-11-24T04:45:12.140Z,99107.31
2022-11-24T04:47:39.763Z,99100.78
2022-11-24T04:50:08.645Z,99112.88
2022-11-24T04:52:36.263Z,99120.34
2022-11-24T04:55:03.879Z,99122.53
2022-11-24T04:57:31.656Z,99118.06
2022-11-24T04:59:59.479Z,99123.22
2022-11-24T05:02:28.424Z,99121.22
2022-11-24T05:04:56.043Z,99113.91
2022-11-24T05:07:23.660Z,99113.16
2022-11-24T05:10:08.888Z,99121.34
2022-11-24T05:12:36.533Z,99110.44
2022-11-24T05:15:05.912Z,99115.63
2022-11-24T05:17:36.396Z,99125.59
2022-11-24T05:20:04.556Z,99131.19
2022-11-24T05:22:32.723Z,99117.34
2022-11-24T05:25:00.541Z,99130.16
2022-11-24T05:27:28.182Z,99136.75
2022-11-24T05:29:55.861Z,99129.09
2022-11-24T05:32:23.722Z,99139.41
2022-11-24T05:34:53.852Z,99138.97
2022-11-24T05:37:21.892Z,99141.66
2022-11-24T05:39:49.460Z,99147.94
2022-11-24T05:42:34.619Z,99147.19
2022-11-24T05:45:02.288Z,99154.75
2022-11-24T05:47:29.860Z,99157.34
2022-11-24T05:49:58.835Z,99157.50
2022-11-24T05:52:26.503Z,99162.69
2022-11-24T05:54:54.067Z,99165.59
2022-11-24T05:57:21.729Z,99167.63
2022-11-24T05:59:49.404Z,99182.06
2022-11-24T06:02:17.129Z,99182.59
2022-11-24T06:04:44.761Z,99175.66
2022-11-24T06:07:14.045Z,99180.50
2022-11-24T06:09:42.822Z,99190.13
2022-11-24T06:12:11.971Z,99176.84
2022-11-24T06:14:39.963Z,99181.44
2022-11-24T06:17:08.082Z,99184.63
2022-11-24T06:19:41.527Z,99187.06
2022-11-24T06:22:09.592Z,99175.09
2022-11-24T06:24:38.578Z,99181.66
2022-11-24T06:27:06.877Z,99190.59
2022-11-24T06:29:34.531Z,99182.34
2022-11-24T06:32:02.397Z,99189.13
2022-11-24T06:34:30.031Z,99186.63
2022-11-24T06:36:58.254Z,99192.28
2022-11-24T06:39:25.844Z,99191.28
2022-11-24T06:41:54.909Z,99214.69
2022-11-24T06:44:23.265Z,99208.59
2022-11-24T06:46:50.916Z,99212.72
2022-11-24T06:49:18.676Z,99216.34
2022-11-24T06:51:46.301Z,99217.78
2022-11-24T06:54:16.166Z,99213.97
2022-11-24T06:56:43.839Z,99219.56
2022-11-24T06:59:18.580Z,99232.72
2022-11-24T07:01:47.012Z,99230.13
2022-11-24T07:04:15.870Z,99236.84
2022-11-24T07:06:43.966Z,99246.72
2022-11-24T07:09:13.618Z,99245.38
2022-11-24T07:11:41.964Z,99256.28
2022-11-24T07:14:10.158Z,99252.13
2022-11-24T07:16:40.086Z,99265.66
2022-11-24T07:19:07.827Z,99264.53
2022-11-24T07:21:35.599Z,99265.78
2022-11-24T07:24:03.334Z,99270.00
2022-11-24T07:26:30.989Z,99266.91
2022-11-24T07:28:58.639Z,99279.13
2022-11-24T07:31:26.393Z,99278.31
2022-11-24T07:33:56.494Z,99278.63
2022-11-24T07:36:25.298Z,99281.69
2022-11-24T07:38:53.000Z,99298.03
2022-11-24T07:41:22.196Z,99298.50
2022-11-24T07:43:50.632Z,99307.91
2022-11-24T07:46:20.007Z,99310.63
2022-11-24T07:48:47.792Z,99307.50
2022-11-24T07:51:16.829Z,99313.19
2022-11-24T07:53:45.059Z,99316.78
2022-11-24T07:56:13.596Z,99314.31
2022-11-24T07:58:41.238Z,99328.09
2022-11-24T08:01:14.228Z,99330.56
2022-11-24T08:03:42.143Z,99335.00
2022-11-24T08:06:30.023Z,99335.53
2022-11-24T08:09:00.060Z,99337.28
2022-11-24T08:11:28.198Z,99329.56
2022-11-24T08:13:55.898Z,99342.88
2022-11-24T08:16:24.577Z,99342.59
2022-11-24T08:18:53.670Z,99360.38
2022-11-24T08:21:23.496Z,99363.38
2022-11-24T08:23:54.764Z,99364.22
2022-11-24T08:26:24.883Z,99368.31
2022-11-24T08:28:55.726Z,99370.25
2022-11-24T08:31:24.858Z,99370.38
2022-11-24T08:33:52.685Z,99377.31
2022-11-24T08:36:20.534Z,99370.75
2022-11-24T08:38:48.976Z,99372.66
2022-11-24T08:41:18.047Z,99388.16
2022-11-24T08:43:47.065Z,99377.59
2022-11-24T08:46:16.952Z,99386.44
2022-11-24T08:48:46.521Z,99386.09
2022-11-24T08:51:16.962Z,99385.94
2022-11-24T08:53:44.674Z,99390.44
2022-11-24T08:56:13.876Z,99395.19
2022-11-24T08:58:42.540Z,99396.81
2022-11-24T09:01:13.970Z,99397.34
2022-11-24T09:03:48.580Z,99401.53
2022-11-24T09:06:19.796Z,99412.22
2022-11-24T09:08:47.395Z,99414.88
2022-11-24T09:11:17.196Z,99416.84
2022-11-24T09:13:46.193Z,99428.72
2022-11-24T09:16:17.018Z,99427.19
2022-11-24T09:18:45.354Z,99428.09
2022-11-24T09:21:15.082Z,99421.81
2022-11-24T09:23:43.882Z,99422.81
2022-11-24T09:26:13.758Z,99440.94
2022-11-24T09:28:41.771Z,99438.31
2022-11-24T09:31:11.990Z,99437.91
2022-11-24T09:33:42.329Z,99445.34
2022-11-24T09:36:10.626Z,99445.06
2022-11-24T09:38:38.711Z,99445.69
2022-11-24T09:41:34.301Z,99443.88
2022-11-24T09:44:09.806Z,99450.13
2022-11-24T09:46:45.264Z,99457.00
2022-11-24T09:49:18.698Z,99451.63
2022-11-24T09:51:52.305Z,99447.66
2022-11-24T09:54:25.208Z,99450.09
2022-11-24T09:56:53.427Z,99456.28
2022-11-24T09:59:22.685Z,99455.72
2022-11-24T10:01:51.675Z,99463.47
2022-11-24T10:04:23.492Z,99457.88
2022-11-24T10:07:01.368Z,99466.69
2022-11-24T10:09:41.479Z,99469.44
2022-11-24T10:12:20.918Z,99475.31
2022-11-24T10:15:24.512Z,99475.72
2022-11-24T10:18:21.551Z,99467.44
2022-11-24T10:21:00.295Z,99474.84
2022-11-24T10:23:43.659Z,99467.69
2022-11-24T10:26:19.151Z,99483.09
2022-11-24T10:28:53.222Z,99463.69
2022-11-24T10:31:26.045Z,99467.28
2022-11-24T10:33:53.708Z,99469.09
2022-11-24T10:36:31.236Z,99475.16
2022-11-24T10:39:05.498Z,99469.31
2022-11-24T10:41:42.736Z,99470.06
2022-11-24T10:44:14.698Z,99466.59
2022-11-24T10:46:42.582Z,99469.72
2022-11-24T10:49:19.070Z,99462.34
2022-11-24T10:52:05.756Z,99462.97
2022-11-24T10:54:35.807Z,99472.59
2022-11-24T10:57:03.564Z,99483.03
2022-11-24T10:59:38.389Z,99476.25
2022-11-24T11:02:34.922Z,99479.34
2022-11-24T11:05:28.552Z,99478.97
2022-11-24T11:08:19.864Z,99478.50
2022-11-24T11:10:49.830Z,99481.88
2022-11-24T11:13:26.252Z,99488.19
2022-11-24T11:15:54.383Z,99501.72
2022-11-24T11:18:23.097Z,99501.44
2022-11-24T11:20:53.462Z,99499.66
2022-11-24T11:23:28.647Z,99503.91
2022-11-24T11:26:18.980Z,99499.06
2022-11-24T11:34:54.470Z,99504.31
2022-11-24T11:37:26.661Z,99503.22
2022-11-24T11:39:56.305Z,99514.44
2022-11-24T11:43:00.886Z,99508.47
2022-11-24T11:45:22.483Z,99494.97
2022-11-24T11:47:55.828Z,99490.31
2022-11-24T11:50:28.438Z,99486.06
2022-11-24T11:53:10.475Z,99486.69
2022-11-24T11:56:13.330Z,99499.38
2022-11-24T11:58:57.691Z,99500.75
2022-11-24T12:01:38.582Z,99498.09
2022-11-24T12:04:18.508Z,99503.09
2022-11-24T12:07:02.439Z,99506.81
2022-11-24T12:09:48.804Z,99521.94
2022-11-24T12:12:41.069Z,99513.81
2022-11-24T12:15:16.986Z,99520.94
2022-11-24T12:17:52.460Z,99526.44
2022-11-24T12:20:45.205Z,99534.94
2022-11-24T12:23:26.548Z,99523.59
2022-11-24T12:26:00.249Z,99544.16
2022-11-24T12:28:41.472Z,99535.56
2022-11-24T12:31:17.127Z,99542.06
2022-11-24T12:34:10.118Z,99541.66
2022-11-24T12:36:52.449Z,99537.47
2022-11-24T12:39:28.731Z,99544.88
2022-11-24T12:42:06.372Z,99541.69
2022-11-24T12:44:57.300Z,99540.13
2022-11-24T12:47:36.467Z,99537.97
2022-11-24T12:50:10.149Z,99535.41
2022-11-24T12:52:42.655Z,99532.75
2022-11-24T12:55:18.115Z,99538.53
2022-11-24T12:57:51.447Z,99535.72
2022-11-24T13:00:23.810Z,99540.00
2022-11-24T13:03:13.932Z,99544.16
2022-11-24T13:05:51.255Z,99548.94
2022-11-24T13:08:20.043Z,99549.03
2022-11-24T13:10:57.101Z,99552.28
2022-11-24T13:13:29.275Z,99546.06
2022-11-24T13:19:11.017Z,99554.53
2022-11-24T13:22:15.304Z,99550.41
2022-11-24T13:24:44.842Z,99553.50
2022-11-24T13:27:41.505Z,99552.75
2022-11-24T13:30:52.092Z,99543.56
2022-11-24T13:33:31.590Z,99544.88
2022-11-24T13:36:31.490Z,99550.47
2022-11-24T13:39:00.424Z,99549.06
2022-11-24T13:42:08.451Z,99554.50
2022-11-24T13:44:53.194Z,99557.63
2022-11-24T13:47:41.773Z,99559.31
2022-11-24T13:50:46.089Z,99559.25
2022-11-24T13:53:22.810Z,99563.22
2022-11-24T13:55:58.056Z,99558.72
2022-11-24T13:58:35.337Z,99553.75
2022-11-24T14:01:12.896Z,99553.50
2022-11-24T14:04:21.707Z,99554.84
2022-11-24T14:06:39.112Z,99557.19
2022-11-24T14:09:22.206Z,99558.34
2022-11-24T14:12:00.365Z,99552.88
2022-11-24T14:14:28.137Z,99549.41
2022-11-24T14:17:14.437Z,99542.44
2022-11-24T14:19:42.931Z,99542.66
2022-11-24T14:22:16.752Z,99548.88
2022-11-24T14:24:47.936Z,99548.19
2022-11-24T14:27:18.275Z,99550.84
2022-11-24T14:29:56.616Z,99550.13
2022-11-24T14:32:24.893Z,99547.19
2022-11-24T14:34:54.114Z,99559.28
2022-11-24T14:37:22.206Z,99554.78
2022-11-24T14:39:51.370Z,99562.59
2022-11-24T14:42:22.313Z,99566.41
2022-11-24T14:44:54.153Z,99560.50
2022-11-24T14:47:31.306Z,99563.41
2022-11-24T14:50:09.345Z,99567.75
2022-11-24T14:52:37.548Z,99565.31
2022-11-24T14:55:22.448Z,99570.63
2022-11-24T14:57:50.680Z,99575.47
2022-11-24T15:00:21.154Z,99571.72
2022-11-24T15:02:51.988Z,99577.09
2022-11-24T15:05:20.552Z,99572.50
2022-11-24T15:07:50.501Z,99577.78
2022-11-24T15:10:29.083Z,99581.44
2022-11-24T15:13:01.925Z,99582.00
2022-11-24T15:15:33.044Z,99585.81
2022-11-24T15:18:02.438Z,99576.59
2022-11-24T15:20:32.802Z,99577.97
2022-11-24T15:23:31.692Z,99582.47
2022-11-24T15:26:30.723Z,99579.50
2022-11-24T15:29:00.858Z,99573.22
2022-11-24T15:31:28.533Z,99581.63
2022-11-24T15:33:56.228Z,99578.63
2022-11-24T15:36:23.866Z,99584.28
2022-11-24T15:38:52.049Z,99587.25
2022-11-24T15:41:23.017Z,99583.50
2022-11-24T15:43:50.663Z,99585.13
2022-11-24T15:46:18.368Z,99586.78
2022-11-24T15:48:46.292Z,99592.16
2022-11-24T15:51:15.651Z,99593.31
2022-11-24T15:53:46.645Z,99601.72
2022-11-24T15:56:20.357Z,99600.88
2022-11-24T15:58:49.683Z,99597.56
2022-11-24T16:01:17.582Z,99604.81
2022-11-24T16:03:47.561Z,99604.63
2022-11-24T16:06:24.254Z,99612.84
2022-11-24T16:08:53.216Z,99607.41
2022-11-24T16:11:20.880Z,99607.66
2022-11-24T16:13:52.896Z,99616.69
2022-11-24T16:16:22.034Z,99616.00
2022-11-24T16:18:49.951Z,99620.59
2022-11-24T16:21:17.830Z,99616.91
2022-11-24T16:23:45.561Z,99618.72
2022-11-24T16:26:14.323Z,99615.34
2022-11-24T16:28:42.785Z,99615.97
2022-11-24T16:31:12.609Z,99616.97
2022-11-24T16:33:40.944Z,99618.25
2022-11-24T16:36:09.437Z,99617.34
2022-11-24T16:38:37.210Z,99617.00
2022-11-24T16:41:04.892Z,99618.47
2022-11-24T16:43:32.562Z,99621.47
2022-11-24T16:46:17.931Z,99616.03
2022-11-24T16:48:48.595Z,99614.19
2022-11-24T16:51:18.223Z,99609.59
2022-11-24T16:53:46.163Z,99611.94
2022-11-24T16:56:14.811Z,99616.56
2022-11-24T16:58:42.511Z,99619.28
2022-11-24T17:01:11.672Z,99621.69
2022-11-24T17:03:40.001Z,99622.38
2022-11-24T17:06:11.281Z,99628.88
2022-11-24T17:08:40.720Z,99622.63
2022-11-24T17:11:09.102Z,99626.22
2022-11-24T17:13:36.799Z,99625.63
2022-11-24T17:16:05.764Z,99634.16
2022-11-24T17:18:34.272Z,99637.91
2022-11-24T17:21:07.668Z,99632.00
2022-11-24T17:23:38.800Z,99636.47
2022-11-24T17:26:08.076Z,99634.41
2022-11-24T17:28:37.644Z,99634.06
2022-11-24T17:31:08.911Z,99638.09
2022-11-24T17:33:36.936Z,99644.19
2022-11-24T17:36:05.592Z,99644.91
2022-11-24T17:38:33.430Z,99644.03
2022-11-24T17:41:02.699Z,99647.41
2022-11-24T17:43:30.435Z,99642.28
2022-11-24T17:46:00.791Z,99644.09
2022-11-24T17:48:29.359Z,99649.75
2022-11-24T17:51:01.737Z,99637.44
2022-11-24T17:53:29.419Z,99641.34
2022-11-24T17:55:59.819Z,99640.28
2022-11-24T17:58:29.165Z,99650.81
2022-11-24T18:00:56.970Z,99665.88
2022-11-24T18:03:25.584Z,99656.06
2022-11-24T18:05:54.263Z,99661.59
2022-11-24T18:08:22.183Z,99662.00
2022-11-24T18:10:49.977Z,99659.81
2022-11-24T18:13:34.310Z,99668.91
2022-11-24T18:16:08.883Z,99661.91
2022-11-24T18:18:40.236Z,99663.13
2022-11-24T18:21:12.690Z,99657.38
2022-11-24T18:23:40.832Z,99659.00
2022-11-24T18:26:09.110Z,99656.09
2022-11-24T18:28:36.718Z,99650.31
2022-11-24T18:31:07.171Z,99651.81
2022-11-24T18:33:37.697Z,99644.09
2022-11-24T18:36:06.944Z,99638.84
2022-11-24T18:38:36.841Z,99640.94
2022-11-24T18:41:05.713Z,99638.97
2022-11-24T18:43:35.368Z,99652.09
2022-11-24T18:46:07.021Z,99648.66
2022-11-24T18:48:35.271Z,99643.38
2022-11-24T18:51:03.147Z,99644.91
2022-11-24T18:53:32.142Z,99642.28
2022-11-24T18:56:02.010Z,99648.19
2022-11-24T18:58:30.959Z,99647.09
2022-11-24T19:01:09.016Z,99649.03
2022-11-24T19:03:42.372Z,99647.94
2022-11-24T19:06:17.095Z,99650.00
2022-11-24T19:08:45.522Z,99642.69
2022-11-24T19:11:18.849Z,99646.00
2022-11-24T19:13:47.553Z,99644.47
2022-11-24T19:16:17.959Z,99640.34
2022-11-24T19:18:51.872Z,99646.69
2022-11-24T19:21:22.041Z,99642.84
2022-11-24T19:23:50.379Z,99640.06
2022-11-24T19:26:18.596Z,99644.34
2022-11-24T19:28:46.617Z,99643.25
2022-11-24T19:31:17.348Z,99638.69
2022-11-24T19:33:46.309Z,99635.66
2022-11-24T19:36:16.004Z,99636.66
2022-11-24T19:38:51.187Z,99636.34
2022-11-24T19:41:20.710Z,99637.56
2022-11-24T19:43:49.215Z,99633.25
2022-11-24T19:46:20.013Z,99633.56
2022-11-24T19:48:50.204Z,99634.38
2022-11-24T19:51:20.297Z,99630.34
2022-11-24T19:53:48.378Z,99630.50
2022-11-24T19:56:18.582Z,99633.41
2022-11-24T19:58:47.467Z,99632.25
2022-11-24T20:01:17.036Z,99633.06
2022-11-24T20:03:47.804Z,99631.13
2022-11-24T20:06:16.571Z,99626.13
2022-11-24T20:08:44.738Z,99627.00
2022-11-24T20:11:14.503Z,99634.03
2022-11-24T20:13:43.910Z,99624.88
2022-11-24T20:16:16.803Z,99638.81
2022-11-24T20:18:47.651Z,99645.31
2022-11-24T20:21:17.858Z,99637.19
2022-11-24T20:23:47.179Z,99636.88
2022-11-24T20:26:19.513Z,99644.44
2022-11-24T20:28:49.103Z,99644.97
2022-11-24T20:31:18.710Z,99641.63
2022-11-24T20:33:48.280Z,99641.78
2022-11-24T20:36:18.135Z,99645.19
2022-11-24T20:38:46.884Z,99640.34
2022-11-24T20:41:17.020Z,99649.47
2022-11-24T20:43:45.938Z,99642.81
2022-11-24T20:46:15.919Z,99651.34
2022-11-24T20:48:44.202Z,99648.28
2022-11-24T20:51:15.775Z,99646.09
2022-11-24T20:53:43.730Z,99643.41
2022-11-24T20:56:13.695Z,99640.38
2022-11-24T20:58:41.966Z,99647.16
2022-11-24T21:01:13.286Z,99651.72
2022-11-24T21:03:43.433Z,99644.97
2022-11-24T21:06:13.597Z,99649.50
2022-11-24T21:08:43.193Z,99651.22
2022-11-24T21:11:13.388Z,99643.25
2022-11-24T21:13:43.797Z,99645.34
2022-11-24T21:16:16.529Z,99640.88
2022-11-24T21:18:45.292Z,99649.13
2022-11-24T21:21:15.151Z,99649.72
2022-11-24T21:23:42.861Z,99656.25
2022-11-24T21:26:16.351Z,99650.53
2022-11-24T21:28:47.107Z,99656.72
2022-11-24T21:31:16.682Z,99659.56
2022-11-24T21:33:46.344Z,99654.94
2022-11-24T21:36:17.867Z,99656.44
2022-11-24T21:38:50.331Z,99654.94
2022-11-24T21:41:18.214Z,99655.56
2022-11-24T21:43:46.364Z,99649.63
2022-11-24T21:46:14.653Z,99655.44
2022-11-24T21:48:43.525Z,99651.63
2022-11-24T21:51:14.002Z,99651.41
2022-11-24T21:53:44.539Z,99648.22
2022-11-24T21:56:13.846Z,99654.47
2022-11-24T21:58:47.126Z,99645.91
2022-11-24T22:01:15.999Z,99637.72
2022-11-24T22:03:44.137Z,99650.25
2022-11-24T22:06:11.802Z,99650.59
2022-11-24T22:08:39.769Z,99659.19
2022-11-24T22:11:12.327Z,99652.78
2022-11-24T22:13:40.073Z,99648.28
2022-11-24T22:16:09.785Z,99644.47
2022-11-24T22:18:39.107Z,99647.06
2022-11-24T22:21:08.000Z,99642.06
2022-11-24T22:23:37.770Z,99641.09
2022-11-24T22:26:06.037Z,99635.91
2022-11-24T22:28:35.854Z,99635.78
2022-11-24T22:31:07.639Z,99642.22
2022-11-24T22:33:35.481Z,99642.94
2022-11-24T22:36:03.644Z,99650.94
2022-11-24T22:38:32.748Z,99649.16
2022-11-24T22:41:04.590Z,99643.34
2022-11-24T22:43:33.288Z,99646.44
2022-11-24T22:46:05.934Z,99649.88
2022-11-24T22:48:34.572Z,99658.66
2022-11-24T22:51:03.719Z,99660.69
2022-11-24T22:53:31.527Z,99654.53
2022-11-24T22:56:02.240Z,99658.28
2022-11-24T22:58:30.275Z,99666.88
2022-11-24T23:00:58.699Z,99661.88
2022-11-24T23:03:27.705Z,99660.44
2022-11-24T23:05:55.432Z,99655.34
2022-11-24T23:08:23.052Z,99647.53
2022-11-24T23:10:50.685Z,99648.16
2022-11-24T23:13:18.387Z,99652.03
2022-11-24T23:15:45.988Z,99658.94
2022-11-24T23:18:13.855Z,99657.50
2022-11-24T23:20:42.788Z,99651.94
2022-11-24T23:23:10.392Z,99650.75
2022-11-24T23:25:38.052Z,99659.25
2022-11-24T23:28:06.057Z,99643.50
2022-11-24T23:30:33.665Z,99647.81
2022-11-24T23:33:01.320Z,99638.09
2022-11-24T23:35:29.132Z,99634.22
2022-11-24T23:38:07.403Z,99628.91
2022-11-24T23:40:35.667Z,99632.47
2022-11-24T23:43:03.284Z,99632.13
2022-11-24T23:45:31.014Z,99627.50
2022-11-24T23:47:58.731Z,99646.00
2022-11-24T23:50:26.417Z,99643.16
2022-11-24T23:52:54.425Z,99637.94
2022-11-24T23:55:23.407Z,99646.19
2022-11-24T23:57:51.018Z,99646.44
